Jerumenha, Brazil
Current Conditions -  °F | °C
As of 11:00 AM on Saturday 22 Nov 2014 (Local Time) from SBTE Reporting Station
Scattered Clouds Scattered Clouds  
Wind Chill: 91°   Ceiling: Unl
Heat Index: 94°   Visibility: 6mi
Dew Point: 66°   Wind: 6mph
Humidity: 43%   Direction: 160°SSE
Pressure: 29.85"   Gusts: NA
Location:  7.09°S, 43.51°W
Report Text: SBTE 221400Z 16005KT 9999 SCT030 33/19 Q1011
Loading
Personal Weather Stations






























Interactive Weather Map New forecast layout! Learn more

10-Day Weather Forecast

Advertisements
Track Severe Weather on mobile